createdAt,value
2018-04-22T00:02:25.210Z,20.70
2018-04-22T00:04:54.525Z,20.60
2018-04-22T00:07:23.695Z,19.47
2018-04-22T00:09:52.907Z,18.27
2018-04-22T00:12:22.141Z,19.57
2018-04-22T00:14:51.414Z,19.50
2018-04-22T00:17:20.649Z,18.23
2018-04-22T00:19:49.897Z,18.23
2018-04-22T00:22:19.161Z,18.03
2018-04-22T00:24:48.382Z,19.97
2018-04-22T00:27:17.604Z,20.23
2018-04-22T00:29:47.581Z,20.60
2018-04-22T00:32:16.745Z,23.47
2018-04-22T00:34:45.932Z,20.50
2018-04-22T00:37:15.146Z,18.93
2018-04-22T00:39:44.353Z,21.90
2018-04-22T00:42:13.597Z,19.77
2018-04-22T00:44:43.708Z,18.30
2018-04-22T00:47:13.082Z,19.87
2018-04-22T00:49:42.540Z,19.43
2018-04-22T00:52:11.793Z,18.97
2018-04-22T00:54:41.025Z,21.40
2018-04-22T00:57:10.235Z,19.37
2018-04-22T00:59:39.491Z,19.03
2018-04-22T01:02:08.708Z,20.77
2018-04-22T01:04:38.682Z,20.77
2018-04-22T01:07:07.810Z,21.77
2018-04-22T01:09:37.091Z,23.57
2018-04-22T01:12:06.329Z,20.63
2018-04-22T01:14:36.430Z,20.30
2018-04-22T01:17:05.596Z,19.47
2018-04-22T01:19:34.936Z,20.50
2018-04-22T01:22:04.218Z,19.13
2018-04-22T01:24:33.417Z,20.63
2018-04-22T01:27:02.689Z,19.53
2018-04-22T01:29:31.952Z,22.07
2018-04-22T01:32:01.205Z,20.30
2018-04-22T01:34:30.477Z,23.73
2018-04-22T01:36:59.715Z,21.93
2018-04-22T01:39:29.780Z,22.93
2018-04-22T01:41:58.995Z,21.70
2018-04-22T01:44:28.199Z,21.87
2018-04-22T01:46:57.456Z,23.67
2018-04-22T01:49:27.066Z,20.90
2018-04-22T01:51:56.312Z,19.90
2018-04-22T01:54:25.470Z,20.03
2018-04-22T01:56:54.715Z,19.47
2018-04-22T01:59:23.937Z,23.20
2018-04-22T02:01:53.249Z,19.67
2018-04-22T02:04:22.495Z,20.97
2018-04-22T02:06:51.698Z,19.70
2018-04-22T02:09:21.161Z,22.47
2018-04-22T02:11:51.120Z,21.63
2018-04-22T02:14:20.354Z,21.47
2018-04-22T02:16:49.605Z,23.90
2018-04-22T02:19:18.828Z,21.10
2018-04-22T02:21:48.118Z,19.40
2018-04-22T02:24:17.331Z,22.50
2018-04-22T02:26:46.548Z,19.83
2018-04-22T02:29:15.794Z,18.10
2018-04-22T02:31:45.038Z,20.97
2018-04-22T02:34:14.225Z,20.63
2018-04-22T02:36:43.440Z,20.30
2018-04-22T02:39:12.639Z,20.50
2018-04-22T02:41:41.873Z,24.43
2018-04-22T02:44:11.155Z,21.20
2018-04-22T02:46:40.486Z,23.80
2018-04-22T02:49:09.835Z,22.30
2018-04-22T02:51:39.225Z,21.47
2018-04-22T02:54:08.595Z,20.13
2018-04-22T02:56:37.940Z,24.17
2018-04-22T02:59:07.977Z,22.37
2018-04-22T03:01:37.340Z,22.83
2018-04-22T03:04:06.655Z,26.00
2018-04-22T03:06:35.880Z,22.83
2018-04-22T03:09:05.891Z,24.13
2018-04-22T03:11:35.144Z,21.60
2018-04-22T03:14:04.417Z,20.77
2018-04-22T03:16:33.679Z,26.83
2018-04-22T03:19:03.664Z,22.03
2018-04-22T03:21:32.953Z,22.67
2018-04-22T03:24:02.209Z,23.67
2018-04-22T03:26:32.380Z,24.13
2018-04-22T03:29:01.628Z,25.63
2018-04-22T03:31:30.845Z,28.87
2018-04-22T03:34:00.076Z,25.10
2018-04-22T03:36:29.287Z,23.90
2018-04-22T03:38:58.508Z,24.27
2018-04-22T03:41:28.556Z,25.43
2018-04-22T03:43:57.851Z,26.23
2018-04-22T03:46:27.037Z,23.90
2018-04-22T03:48:56.315Z,26.23
2018-04-22T03:51:25.569Z,26.40
2018-04-22T03:53:54.769Z,26.03
2018-04-22T03:56:24.003Z,26.10
2018-04-22T03:58:53.201Z,28.80
2018-04-22T04:01:22.411Z,23.10
2018-04-22T04:03:51.609Z,24.53
2018-04-22T04:06:20.842Z,23.23
2018-04-22T04:08:50.076Z,24.30
2018-04-22T04:11:19.297Z,26.33
2018-04-22T04:13:48.572Z,24.57
2018-04-22T04:16:17.805Z,25.70
2018-04-22T04:18:59.686Z,30.10
2018-04-22T04:21:40.447Z,23.10
2018-04-22T04:30:20.213Z,24.97
2018-04-22T04:32:50.186Z,23.17
2018-04-22T04:35:19.463Z,25.13
2018-04-22T04:37:48.786Z,23.23
2018-04-22T04:40:18.055Z,23.43
2018-04-22T04:42:47.475Z,18.77
2018-04-22T04:45:16.772Z,22.70
2018-04-22T04:47:46.088Z,21.67
2018-04-22T04:50:15.352Z,19.33
2018-04-22T04:52:45.445Z,22.37
2018-04-22T04:55:15.538Z,21.60
2018-04-22T04:57:44.969Z,20.00
2018-04-22T05:00:14.294Z,24.23
2018-04-22T05:02:43.582Z,20.33
2018-04-22T05:05:12.946Z,20.37
2018-04-22T05:07:42.295Z,21.20
2018-04-22T05:10:12.101Z,23.37
2018-04-22T05:12:42.390Z,22.40
2018-04-22T05:15:11.736Z,24.37
2018-04-22T05:17:41.128Z,22.17
2018-04-22T05:20:10.489Z,20.17
2018-04-22T05:22:39.797Z,20.20
2018-04-22T05:25:10.221Z,20.33
2018-04-22T05:27:40.655Z,19.43
2018-04-22T05:30:10.364Z,20.90
2018-04-22T05:32:40.399Z,19.17
2018-04-22T05:35:09.686Z,22.03
2018-04-22T05:37:38.954Z,22.00
2018-04-22T05:40:08.227Z,18.63
2018-04-22T05:42:38.221Z,19.30
2018-04-22T05:45:07.463Z,19.77
2018-04-22T05:47:36.689Z,18.23
2018-04-22T05:50:05.939Z,20.20
2018-04-22T05:52:35.158Z,18.70
2018-04-22T05:55:04.509Z,20.57
2018-04-22T05:57:33.727Z,22.03
2018-04-22T06:00:02.905Z,18.40
2018-04-22T06:02:44.370Z,19.47
2018-04-22T06:05:20.109Z,20.70
2018-04-22T06:07:52.676Z,19.03
2018-04-22T06:10:26.894Z,18.10
2018-04-22T06:12:56.172Z,20.43
2018-04-22T06:15:26.176Z,20.10
2018-04-22T06:17:56.176Z,18.30
2018-04-22T06:20:25.393Z,18.97
2018-04-22T06:22:55.514Z,21.60
2018-04-22T06:25:24.680Z,18.63
2018-04-22T06:27:53.980Z,18.87
2018-04-22T06:30:23.283Z,19.83
2018-04-22T06:32:52.467Z,21.30
2018-04-22T06:35:21.672Z,21.50
2018-04-22T06:37:50.911Z,18.67
2018-04-22T06:40:20.331Z,20.07
2018-04-22T06:42:49.557Z,23.00
2018-04-22T06:45:18.799Z,22.63
2018-04-22T06:47:48.129Z,21.63
2018-04-22T06:50:18.274Z,20.83
2018-04-22T06:52:47.455Z,23.33
2018-04-22T06:55:17.523Z,20.27
2018-04-22T06:57:46.718Z,21.50
2018-04-22T07:00:15.984Z,23.53
2018-04-22T07:02:45.277Z,21.17
2018-04-22T07:05:15.328Z,21.70
2018-04-22T07:07:44.511Z,19.03
2018-04-22T07:10:13.821Z,19.53
2018-04-22T07:12:43.124Z,20.33
2018-04-22T07:15:12.363Z,23.83
2018-04-22T07:17:41.575Z,20.13
2018-04-22T07:20:11.743Z,20.43
2018-04-22T07:22:40.982Z,20.63
2018-04-22T07:25:11.066Z,19.33
2018-04-22T07:27:40.389Z,17.80
2018-04-22T07:30:09.659Z,18.13
2018-04-22T07:32:38.893Z,17.83
2018-04-22T07:35:08.137Z,16.77
2018-04-22T07:37:37.330Z,17.23
2018-04-22T07:40:06.555Z,17.43
2018-04-22T07:42:35.971Z,16.27
2018-04-22T07:45:05.260Z,17.77
2018-04-22T07:47:34.564Z,17.77
2018-04-22T07:50:03.860Z,17.33
2018-04-22T07:52:33.068Z,17.70
2018-04-22T07:55:02.376Z,16.47
2018-04-22T07:57:31.761Z,16.20
2018-04-22T08:00:00.959Z,15.40
2018-04-22T08:02:30.140Z,14.80
2018-04-22T08:04:59.321Z,16.13
2018-04-22T08:07:28.537Z,13.53
2018-04-22T08:09:57.932Z,15.63
2018-04-22T08:12:27.356Z,14.30
2018-04-22T08:14:56.757Z,11.60
2018-04-22T08:17:26.379Z,14.73
2018-04-22T08:19:55.770Z,13.23
2018-04-22T08:22:24.989Z,14.60
2018-04-22T08:24:54.263Z,12.53
2018-04-22T08:27:23.564Z,12.47
2018-04-22T08:29:54.399Z,12.50
2018-04-22T08:32:23.598Z,11.87
2018-04-22T08:34:52.834Z,10.70
2018-04-22T08:37:22.029Z,14.30
2018-04-22T08:39:51.292Z,10.90
2018-04-22T08:42:20.489Z,10.87
2018-04-22T08:44:49.690Z,11.03
2018-04-22T08:47:18.915Z,11.00
2018-04-22T08:49:48.096Z,10.83
2018-04-22T08:52:17.386Z,10.83
2018-04-22T08:54:46.569Z,10.20
2018-04-22T08:57:15.987Z,16.97
2018-04-22T08:59:45.192Z,10.13
2018-04-22T09:02:14.359Z,10.33
2018-04-22T09:04:43.508Z,13.07
2018-04-22T09:07:12.776Z,12.03
2018-04-22T09:09:42.061Z,10.77
2018-04-22T09:12:11.220Z,9.63
2018-04-22T09:14:40.368Z,9.57
2018-04-22T09:17:09.683Z,10.32
2018-04-22T09:19:38.969Z,9.10
2018-04-22T09:22:08.145Z,10.13
2018-04-22T09:24:37.468Z,9.80
2018-04-22T09:27:06.767Z,9.10
2018-04-22T09:29:35.999Z,10.38
2018-04-22T09:32:05.369Z,10.07
2018-04-22T09:34:34.640Z,9.60
2018-04-22T09:37:04.589Z,10.93
2018-04-22T09:39:33.835Z,10.40
2018-04-22T09:42:02.997Z,9.55
2018-04-22T09:44:32.172Z,10.90
2018-04-22T09:47:01.426Z,9.80
2018-04-22T09:49:31.383Z,10.43
2018-04-22T09:52:00.637Z,10.50
2018-04-22T09:54:30.611Z,9.77
2018-04-22T09:56:59.895Z,12.63
2018-04-22T09:59:29.295Z,10.27
2018-04-22T10:01:58.520Z,10.60
2018-04-22T10:04:29.480Z,11.40
2018-04-22T10:06:58.647Z,11.13
2018-04-22T10:09:29.154Z,12.68
2018-04-22T10:11:58.379Z,10.48
2018-04-22T10:14:27.514Z,9.15
2018-04-22T10:16:57.487Z,9.80
2018-04-22T10:19:26.722Z,8.85
2018-04-22T10:21:56.029Z,9.90
2018-04-22T10:24:25.150Z,9.60
2018-04-22T10:26:54.354Z,9.75
2018-04-22T10:29:23.494Z,11.80
2018-04-22T10:31:52.657Z,11.60
2018-04-22T10:34:21.836Z,9.13
2018-04-22T10:36:51.005Z,11.10
2018-04-22T10:39:20.149Z,10.60
2018-04-22T10:41:49.344Z,8.40
2018-04-22T10:44:18.501Z,10.85
2018-04-22T10:46:47.723Z,7.75
2018-04-22T10:49:17.057Z,8.40
2018-04-22T10:51:46.565Z,9.07
2018-04-22T10:54:15.709Z,8.75
2018-04-22T10:56:44.896Z,7.80
2018-04-22T10:59:14.120Z,7.85
2018-04-22T11:01:43.265Z,11.07
2018-04-22T11:04:14.184Z,7.70
2018-04-22T11:06:43.329Z,7.70
2018-04-22T11:09:12.508Z,11.63
2018-04-22T11:11:42.608Z,9.05
2018-04-22T11:14:11.704Z,6.37
2018-04-22T11:16:40.997Z,6.22
2018-04-22T11:19:10.673Z,8.50
2018-04-22T11:21:40.718Z,7.25
2018-04-22T11:24:10.019Z,7.57
2018-04-22T11:26:39.152Z,8.07
2018-04-22T11:29:08.316Z,6.68
2018-04-22T11:31:37.643Z,7.57
2018-04-22T11:34:06.624Z,7.82
2018-04-22T11:36:35.803Z,6.30
2018-04-22T11:39:06.799Z,7.50
2018-04-22T11:41:36.676Z,9.27
2018-04-22T11:44:05.825Z,8.18
2018-04-22T11:46:35.123Z,9.02
2018-04-22T11:49:11.630Z,6.15
2018-04-22T11:51:40.907Z,8.60
2018-04-22T11:54:15.773Z,8.02
2018-04-22T11:56:44.945Z,8.63
2018-04-22T11:59:15.062Z,7.70
2018-04-22T12:01:44.292Z,9.13
2018-04-22T12:04:13.422Z,7.82
2018-04-22T12:06:43.472Z,8.75
2018-04-22T12:09:12.732Z,5.90
2018-04-22T12:11:41.860Z,6.75
2018-04-22T12:14:10.973Z,8.30
2018-04-22T12:16:40.241Z,9.88
2018-04-22T12:19:10.206Z,6.70
2018-04-22T12:21:39.390Z,6.60
2018-04-22T12:24:08.596Z,6.55
2018-04-22T12:26:37.756Z,7.93
2018-04-22T12:29:06.974Z,9.20
2018-04-22T12:31:36.132Z,6.53
2018-04-22T12:34:06.003Z,7.00
2018-04-22T12:36:35.333Z,7.03
2018-04-22T12:39:08.273Z,7.85
2018-04-22T12:41:37.445Z,7.45
2018-04-22T12:44:07.358Z,6.93
2018-04-22T12:46:36.713Z,7.75
2018-04-22T12:49:05.864Z,8.10
2018-04-22T12:51:35.769Z,7.47
2018-04-22T12:54:05.549Z,6.35
2018-04-22T12:56:34.805Z,7.05
2018-04-22T12:59:04.048Z,7.47
2018-04-22T13:01:33.287Z,7.20
2018-04-22T13:04:02.398Z,6.68
2018-04-22T13:06:32.139Z,6.35
2018-04-22T13:09:11.481Z,8.77
2018-04-22T13:11:41.771Z,6.40
2018-04-22T13:14:10.999Z,6.00
2018-04-22T13:16:40.275Z,6.47
2018-04-22T13:19:09.673Z,6.53
2018-04-22T13:21:38.884Z,6.47
2018-04-22T13:24:08.273Z,6.15
2018-04-22T13:26:37.423Z,5.85
2018-04-22T13:29:06.589Z,9.40
2018-04-22T13:31:35.807Z,8.07
2018-04-22T13:34:04.930Z,5.85
2018-04-22T13:36:34.887Z,5.28
2018-04-22T13:39:04.104Z,6.30
2018-04-22T13:41:33.229Z,5.57
2018-04-22T13:44:03.165Z,6.07
2018-04-22T13:46:33.204Z,7.35
2018-04-22T13:49:02.418Z,7.62
2018-04-22T13:51:31.706Z,7.55
2018-04-22T13:54:01.005Z,4.82
2018-04-22T13:56:30.160Z,5.43
2018-04-22T13:59:01.009Z,6.70
2018-04-22T14:01:31.550Z,5.10
2018-04-22T14:04:00.871Z,4.53
2018-04-22T14:06:30.057Z,5.12
2018-04-22T14:08:59.211Z,5.00
2018-04-22T14:11:28.335Z,3.83
2018-04-22T14:13:57.542Z,4.65
2018-04-22T14:16:26.542Z,5.47
2018-04-22T14:18:55.847Z,6.57
2018-04-22T14:21:25.080Z,4.85
2018-04-22T14:23:54.290Z,6.30
2018-04-22T14:26:23.438Z,6.07
2018-04-22T14:28:52.842Z,4.47
2018-04-22T14:31:22.018Z,7.40
2018-04-22T14:33:51.256Z,5.32
2018-04-22T14:36:20.559Z,4.55
2018-04-22T14:38:49.727Z,6.25
2018-04-22T14:41:19.041Z,5.53
2018-04-22T14:44:00.032Z,6.10
2018-04-22T14:46:29.201Z,6.57
2018-04-22T14:49:05.166Z,8.70
2018-04-22T14:51:34.338Z,7.35
2018-04-22T14:54:04.264Z,6.07
2018-04-22T14:56:33.448Z,4.78
2018-04-22T14:59:02.640Z,5.47
2018-04-22T15:01:31.869Z,6.93
2018-04-22T15:04:01.145Z,5.12
2018-04-22T15:06:30.323Z,7.35
2018-04-22T15:08:59.590Z,11.00
2018-04-22T15:11:28.701Z,6.72
2018-04-22T15:13:58.684Z,5.35
2018-04-22T15:16:27.848Z,7.03
2018-04-22T15:18:57.108Z,5.22
2018-04-22T15:21:26.480Z,4.47
2018-04-22T15:23:55.838Z,5.55
2018-04-22T15:26:25.774Z,6.50
2018-04-22T15:28:55.594Z,5.18
2018-04-22T15:31:25.089Z,3.97
2018-04-22T15:33:54.413Z,6.53
2018-04-22T15:36:23.816Z,4.62
2018-04-22T15:38:53.052Z,6.18
2018-04-22T15:41:22.313Z,3.70
2018-04-22T15:43:51.615Z,3.87
2018-04-22T15:46:20.854Z,4.72
2018-04-22T15:48:50.243Z,4.90
2018-04-22T15:51:20.438Z,5.28
2018-04-22T15:53:49.650Z,7.80
2018-04-22T15:56:18.922Z,4.82
2018-04-22T15:58:48.087Z,4.90
2018-04-22T16:01:17.435Z,6.15
2018-04-22T16:03:46.679Z,4.68
2018-04-22T16:06:16.849Z,4.80
2018-04-22T16:08:46.055Z,6.03
2018-04-22T16:11:15.347Z,4.55
2018-04-22T16:13:44.555Z,5.87
2018-04-22T16:16:13.738Z,6.33
2018-04-22T16:18:42.861Z,8.25
2018-04-22T16:21:11.977Z,4.20
2018-04-22T16:23:41.164Z,5.53
2018-04-22T16:26:11.249Z,5.32
2018-04-22T16:28:40.436Z,5.35
2018-04-22T16:31:09.749Z,7.55
2018-04-22T16:33:38.917Z,5.37
2018-04-22T16:36:08.881Z,4.10
2018-04-22T16:38:38.111Z,4.53
2018-04-22T16:41:08.095Z,5.45
2018-04-22T16:43:37.264Z,5.75
2018-04-22T16:46:06.538Z,5.67
2018-04-22T16:48:39.419Z,5.50
2018-04-22T16:51:09.415Z,5.10
2018-04-22T16:53:39.498Z,4.33
2018-04-22T16:56:08.774Z,5.67
2018-04-22T16:58:38.253Z,6.47
2018-04-22T17:01:07.883Z,5.20
2018-04-22T17:03:37.123Z,4.50
2018-04-22T17:06:06.336Z,5.23
2018-04-22T17:08:35.428Z,4.97
2018-04-22T17:11:04.694Z,7.70
2018-04-22T17:13:33.892Z,6.83
2018-04-22T17:16:06.531Z,4.83
2018-04-22T17:18:37.344Z,6.77
2018-04-22T17:21:06.635Z,8.70
2018-04-22T17:23:35.848Z,5.60
2018-04-22T17:26:08.844Z,5.53
2018-04-22T17:28:38.076Z,7.97
2018-04-22T17:31:07.277Z,4.80
2018-04-22T17:33:36.446Z,6.67
2018-04-22T17:36:05.417Z,5.93
2018-04-22T17:38:34.763Z,5.10
2018-04-22T17:41:04.491Z,6.03
2018-04-22T17:43:33.715Z,5.97
2018-04-22T17:46:03.705Z,5.13
2018-04-22T17:48:33.044Z,10.63
2018-04-22T17:51:02.316Z,5.37
2018-04-22T17:53:31.526Z,9.03
2018-04-22T17:56:02.757Z,5.40
2018-04-22T17:58:31.963Z,5.87
2018-04-22T18:01:01.235Z,5.17
2018-04-22T18:03:30.476Z,4.97
2018-04-22T18:05:59.642Z,7.77
2018-04-22T18:08:28.924Z,13.03
2018-04-22T18:10:58.059Z,8.27
2018-04-22T18:13:27.339Z,11.10
2018-04-22T18:15:56.545Z,11.03
2018-04-22T18:18:25.814Z,9.53
2018-04-22T18:20:55.006Z,8.63
2018-04-22T18:23:24.336Z,7.10
2018-04-22T18:25:53.486Z,6.93
2018-04-22T18:28:22.937Z,6.10
2018-04-22T18:30:52.129Z,10.73
2018-04-22T18:33:21.365Z,7.37
2018-04-22T18:35:50.731Z,9.37
2018-04-22T18:38:19.937Z,8.70
2018-04-22T18:40:49.131Z,9.53
2018-04-22T18:43:18.430Z,9.13
2018-04-22T18:45:47.730Z,9.60
2018-04-22T18:48:17.135Z,6.93
2018-04-22T18:50:46.537Z,8.40
2018-04-22T18:53:17.780Z,8.17
2018-04-22T18:55:50.069Z,6.97
2018-04-22T18:58:19.358Z,11.07
2018-04-22T19:00:48.584Z,10.00
2018-04-22T19:03:17.976Z,10.23
2018-04-22T19:05:47.351Z,8.20
2018-04-22T19:08:16.753Z,10.37
2018-04-22T19:10:45.925Z,8.77
2018-04-22T19:13:15.972Z,6.33
2018-04-22T19:15:45.203Z,7.13
2018-04-22T19:18:14.376Z,6.93
2018-04-22T19:20:43.581Z,7.93
2018-04-22T19:23:12.972Z,9.33
2018-04-22T19:25:42.270Z,7.60
2018-04-22T19:28:12.716Z,9.57
2018-04-22T19:30:42.744Z,6.57
2018-04-22T19:33:12.115Z,8.67
2018-04-22T19:35:42.924Z,9.17
2018-04-22T19:38:12.103Z,9.90
2018-04-22T19:40:42.064Z,9.43
2018-04-22T19:43:11.256Z,9.87
2018-04-22T19:45:40.555Z,7.90
2018-04-22T19:48:09.861Z,7.57
2018-04-22T19:50:39.056Z,6.67
2018-04-22T19:53:08.200Z,6.63
2018-04-22T19:55:38.270Z,7.27
2018-04-22T19:58:07.627Z,8.27
2018-04-22T20:00:37.636Z,8.93
2018-04-22T20:03:07.708Z,6.57
2018-04-22T20:05:36.901Z,9.17
2018-04-22T20:08:06.205Z,6.93
2018-04-22T20:10:35.480Z,6.67
2018-04-22T20:13:04.802Z,7.63
2018-04-22T20:15:34.071Z,9.73
2018-04-22T20:18:04.029Z,6.87
2018-04-22T20:20:33.320Z,9.03
2018-04-22T20:23:02.619Z,10.53
2018-04-22T20:25:31.953Z,8.30
2018-04-22T20:28:01.142Z,7.97
2018-04-22T20:30:30.334Z,9.37
2018-04-22T20:32:59.512Z,10.90
2018-04-22T20:35:28.918Z,9.67
2018-04-22T20:37:58.214Z,8.27
2018-04-22T20:40:27.512Z,7.87
2018-04-22T20:42:56.816Z,7.47
2018-04-22T20:45:26.006Z,9.57
2018-04-22T20:47:55.324Z,8.77
2018-04-22T20:50:24.614Z,8.27
2018-04-22T20:52:53.858Z,8.63
2018-04-22T20:55:23.775Z,7.63
2018-04-22T20:57:53.721Z,8.47
2018-04-22T21:00:22.927Z,10.60
2018-04-22T21:02:52.100Z,8.80
2018-04-22T21:05:22.032Z,7.93
2018-04-22T21:07:51.326Z,9.13
2018-04-22T21:10:20.655Z,10.50
2018-04-22T21:12:49.901Z,8.37
2018-04-22T21:15:19.232Z,8.90
2018-04-22T21:17:48.559Z,8.40
2018-04-22T21:20:17.793Z,9.83
2018-04-22T21:22:46.937Z,10.33
2018-04-22T21:25:16.291Z,9.93
2018-04-22T21:27:45.758Z,7.67
2018-04-22T21:30:15.060Z,9.40
2018-04-22T21:32:44.357Z,9.00
2018-04-22T21:35:13.558Z,8.73
2018-04-22T21:37:43.059Z,11.33
2018-04-22T21:40:12.406Z,11.63
2018-04-22T21:42:42.380Z,8.33
2018-04-22T21:45:11.682Z,10.87
2018-04-22T21:47:40.821Z,8.87
2018-04-22T21:50:10.032Z,11.07
2018-04-22T21:52:40.000Z,11.73
2018-04-22T21:55:09.387Z,8.43
2018-04-22T21:57:38.795Z,9.97
2018-04-22T22:00:08.043Z,8.30
2018-04-22T22:02:40.161Z,8.70
2018-04-22T22:05:09.455Z,10.17
2018-04-22T22:07:38.675Z,11.10
2018-04-22T22:10:07.854Z,10.27
2018-04-22T22:12:37.097Z,7.20
2018-04-22T22:15:07.074Z,9.30
2018-04-22T22:17:36.314Z,8.77
2018-04-22T22:20:05.501Z,9.63
2018-04-22T22:22:35.480Z,9.93
2018-04-22T22:25:04.678Z,9.50
2018-04-22T22:27:33.905Z,10.33
2018-04-22T22:30:03.072Z,11.00
2018-04-22T22:32:32.261Z,8.07
2018-04-22T22:35:01.680Z,9.83
2018-04-22T22:37:30.880Z,8.00
2018-04-22T22:40:00.249Z,8.43
2018-04-22T22:42:30.293Z,8.73
2018-04-22T22:44:59.620Z,10.50
2018-04-22T22:47:28.981Z,9.57
2018-04-22T22:49:58.291Z,11.73
2018-04-22T22:52:27.694Z,8.70
2018-04-22T22:54:56.860Z,9.50
2018-04-22T22:57:26.081Z,9.77
2018-04-22T22:59:55.286Z,8.17
2018-04-22T23:02:24.591Z,10.30
2018-04-22T23:04:53.991Z,10.87
2018-04-22T23:07:23.166Z,9.20
2018-04-22T23:09:52.385Z,8.37
2018-04-22T23:12:21.579Z,12.20
2018-04-22T23:14:50.800Z,8.67
2018-04-22T23:17:20.170Z,8.80
2018-04-22T23:19:49.410Z,10.17
2018-04-22T23:22:18.584Z,8.30
2018-04-22T23:24:47.755Z,11.53
2018-04-22T23:27:16.966Z,13.60
2018-04-22T23:29:47.044Z,8.83
2018-04-22T23:32:17.063Z,10.73
2018-04-22T23:34:47.042Z,9.60
2018-04-22T23:37:16.227Z,8.73
2018-04-22T23:39:45.466Z,10.07
2018-04-22T23:42:15.492Z,8.77
2018-04-22T23:44:45.458Z,10.27
2018-04-22T23:47:14.673Z,10.50
2018-04-22T23:49:43.810Z,10.87
2018-04-22T23:52:13.163Z,10.13
2018-04-22T23:54:42.330Z,9.10
2018-04-22T23:57:11.572Z,11.60
2018-04-22T23:59:40.802Z,8.47
